createdAt,value
2023-04-04T00:04:54.209Z,6.88
2023-04-04T00:09:51.383Z,5.82
2023-04-04T00:19:44.894Z,7.13
2023-04-04T00:24:42.290Z,8.55
2023-04-04T00:29:39.000Z,6.90
2023-04-04T00:34:36.598Z,5.93
2023-04-04T00:39:34.154Z,5.97
2023-04-04T00:44:32.379Z,5.93
2023-04-04T00:49:30.389Z,8.23
2023-04-04T00:54:27.261Z,7.07
2023-04-04T00:59:24.265Z,5.00
2023-04-04T01:04:22.898Z,7.07
2023-04-04T01:09:22.609Z,7.38
2023-04-04T01:14:19.453Z,8.23
2023-04-04T01:19:22.899Z,6.15
2023-04-04T01:24:24.979Z,5.43
2023-04-04T01:29:21.942Z,4.63
2023-04-04T01:35:03.954Z,5.65
2023-04-04T01:40:06.399Z,5.97
2023-04-04T01:45:03.191Z,6.38
2023-04-04T01:50:00.886Z,5.88
2023-04-04T01:55:00.923Z,5.50
2023-04-04T02:00:02.714Z,6.22
2023-04-04T02:05:05.609Z,5.63
2023-04-04T02:10:02.801Z,8.00
2023-04-04T02:15:12.171Z,8.48
2023-04-04T02:20:12.013Z,5.28
2023-04-04T02:25:09.092Z,4.63
2023-04-04T02:35:05.046Z,6.07
2023-04-04T02:40:08.636Z,6.50
2023-04-04T02:45:05.759Z,5.63
2023-04-04T02:55:07.889Z,8.00
2023-04-04T03:00:07.155Z,4.72
2023-04-04T03:05:04.217Z,5.88
2023-04-04T03:14:59.995Z,6.93
2023-04-04T03:19:56.761Z,4.55
2023-04-04T03:24:53.598Z,7.40
2023-04-04T03:29:50.826Z,6.97
2023-04-04T03:34:49.961Z,5.90
2023-04-04T03:39:47.144Z,7.18
2023-04-04T03:44:44.022Z,5.97
2023-04-04T03:49:43.870Z,6.68
2023-04-04T03:54:42.983Z,6.40
2023-04-04T03:59:39.747Z,6.43
2023-04-04T04:04:38.759Z,6.38
2023-04-04T04:09:37.653Z,7.53
2023-04-04T04:14:45.058Z,4.97
2023-04-04T04:19:47.392Z,6.88
2023-04-04T04:30:41.344Z,5.88
2023-04-04T04:35:40.095Z,8.38
2023-04-04T04:40:43.226Z,8.80
2023-04-04T04:45:44.847Z,7.78
2023-04-04T04:50:44.693Z,7.03
2023-04-04T04:55:46.200Z,6.57
2023-04-04T05:00:43.483Z,5.55
2023-04-04T05:05:40.434Z,6.75
2023-04-04T05:10:38.116Z,7.78
2023-04-04T05:15:35.537Z,7.10
2023-04-04T05:20:32.608Z,9.88
2023-04-04T05:30:26.169Z,7.53
2023-04-04T12:47:59.881Z,2.63
2023-04-04T12:53:18.441Z,4.18
2023-04-04T14:33:20.721Z,5.93
2023-04-04T14:38:19.665Z,6.70
2023-04-04T14:43:21.797Z,6.10
2023-04-04T14:48:18.827Z,4.57
2023-04-04T14:53:19.995Z,5.47
2023-04-04T14:58:18.044Z,5.82
2023-04-04T15:03:57.624Z,5.22
2023-04-04T15:13:54.025Z,6.53
2023-04-04T15:18:58.861Z,3.65
2023-04-04T15:23:57.879Z,5.20
2023-04-04T15:28:55.981Z,3.90
2023-04-04T15:33:59.377Z,3.53
2023-04-04T15:38:56.527Z,3.45
2023-04-04T15:43:53.497Z,4.05
2023-04-04T15:53:56.052Z,4.13
2023-04-04T16:09:13.540Z,4.43
2023-04-04T16:14:12.307Z,4.60
2023-04-04T16:19:11.759Z,4.38
2023-04-04T16:24:09.550Z,3.95
2023-04-04T16:29:06.399Z,5.43
2023-04-04T16:34:06.878Z,6.53
2023-04-04T19:28:31.016Z,7.07
2023-04-04T19:33:27.857Z,7.47
2023-04-04T19:38:28.326Z,10.10
2023-04-04T19:43:27.368Z,8.00
2023-04-04T19:48:49.846Z,8.00
2023-04-04T19:53:53.352Z,8.70
2023-04-04T19:58:58.041Z,7.95
2023-04-04T20:03:59.256Z,8.52
2023-04-04T20:08:57.409Z,10.20
2023-04-04T20:13:56.288Z,9.80
2023-04-04T20:18:53.274Z,12.15
2023-04-04T20:28:46.633Z,8.30
2023-04-04T20:33:43.730Z,11.48
2023-04-04T20:43:38.387Z,8.60
2023-04-04T20:48:37.750Z,10.73
2023-04-04T20:53:34.358Z,10.30
2023-04-04T20:58:31.177Z,8.68
2023-04-04T21:03:29.300Z,12.23
2023-04-04T21:08:26.966Z,14.02
2023-04-04T21:13:36.890Z,10.82
2023-04-04T21:18:33.767Z,12.25
2023-04-04T21:23:30.293Z,20.98
2023-04-04T21:28:32.261Z,11.05
2023-04-04T21:33:28.884Z,11.27
2023-04-04T21:38:35.319Z,10.15
2023-04-04T21:43:31.858Z,10.20
2023-04-04T21:48:28.409Z,11.38
2023-04-04T21:53:24.904Z,13.20
2023-04-04T21:58:21.573Z,11.93
2023-04-04T22:03:18.124Z,9.98
2023-04-04T22:08:14.597Z,12.00
2023-04-04T22:13:14.601Z,11.05
2023-04-04T22:18:14.694Z,12.98
2023-04-04T22:23:12.603Z,12.43
2023-04-04T22:28:09.318Z,9.95
2023-04-04T22:33:06.036Z,15.73
2023-04-04T22:38:03.078Z,15.15
2023-04-04T22:43:00.620Z,12.70
2023-04-04T22:48:01.948Z,12.02
2023-04-04T22:52:58.581Z,10.90
2023-04-04T22:57:55.252Z,13.10
2023-04-04T23:02:52.013Z,12.38
2023-04-04T23:07:52.833Z,13.95
2023-04-04T23:12:49.313Z,12.75
2023-04-04T23:17:46.551Z,12.70
2023-04-04T23:22:43.343Z,13.13
2023-04-04T23:27:40.377Z,11.98
2023-04-04T23:32:36.861Z,12.25
2023-04-04T23:37:33.498Z,14.67
2023-04-04T23:42:29.971Z,14.35
2023-04-04T23:47:26.551Z,16.20
2023-04-04T23:52:23.294Z,14.38
2023-04-04T23:57:19.823Z,12.95
